createdAt,value
2019-03-24T09:55:10.763Z,102209.94
2019-03-24T10:00:14.458Z,102213.30
2019-03-24T10:05:17.574Z,102200.06
2019-03-24T10:10:21.503Z,102190.82
2019-03-24T10:15:24.517Z,102175.98
2019-03-24T10:20:28.251Z,102158.94
2019-03-24T10:25:31.535Z,102157.27
2019-03-24T10:30:35.035Z,102157.69
2019-03-24T10:35:38.122Z,102159.34
2019-03-24T10:40:41.763Z,102149.52
2019-03-24T10:45:45.366Z,102146.05
2019-03-24T10:50:48.433Z,102128.91
2019-03-24T10:55:51.420Z,102123.23
2019-03-24T11:00:54.423Z,102120.23
2019-03-24T11:05:57.689Z,102103.80
2019-03-24T11:11:01.731Z,102088.22
2019-03-24T11:16:05.807Z,102075.27
2019-03-24T11:21:09.416Z,102058.66
2019-03-24T11:26:13.294Z,102074.23
2019-03-24T11:31:17.135Z,102056.48
2019-03-24T11:36:21.294Z,102055.90
2019-03-24T11:41:24.986Z,102047.27
2019-03-24T11:46:28.012Z,102045.86
2019-03-24T11:51:31.912Z,102033.41
2019-03-24T11:56:34.932Z,102038.91
2019-03-24T12:01:38.677Z,102025.86
2019-03-24T12:06:43.146Z,102008.94
2019-03-24T12:11:47.213Z,102003.51
2019-03-24T12:16:50.238Z,101992.55
2019-03-24T12:21:53.893Z,101974.59
2019-03-24T12:26:57.531Z,101972.59
2019-03-24T12:32:01.668Z,101960.66
2019-03-24T12:37:04.681Z,101938.61
2019-03-24T12:42:07.692Z,101934.55
2019-03-24T12:47:11.173Z,101930.34
2019-03-24T12:52:16.330Z,101922.63
2019-03-24T12:57:19.451Z,101907.82
2019-03-24T13:02:22.584Z,101903.48
2019-03-24T13:07:26.281Z,101889.38
2019-03-24T13:12:29.650Z,101881.07
2019-03-24T13:17:32.650Z,101876.08
2019-03-24T13:22:36.399Z,101867.45
2019-03-24T13:27:39.667Z,101864.50
2019-03-24T13:32:43.306Z,101853.13
2019-03-24T13:37:47.247Z,101854.47
2019-03-24T13:42:50.465Z,101853.02
2019-03-24T13:47:53.483Z,101840.14
2019-03-24T13:52:58.186Z,101841.50
2019-03-24T13:58:02.672Z,101838.55
2019-03-24T14:03:10.161Z,101842.20
2019-03-24T14:08:15.446Z,101829.78
2019-03-24T14:13:19.452Z,101825.47
2019-03-24T14:18:23.039Z,101827.33
2019-03-24T14:23:26.345Z,101817.28
2019-03-24T14:28:30.321Z,101818.63
2019-03-24T14:33:35.251Z,101821.36
2019-03-24T14:38:38.309Z,101818.86
2019-03-24T14:43:41.274Z,101810.08
2019-03-24T14:48:44.980Z,101811.10
2019-03-24T14:53:48.357Z,101802.93
2019-03-24T14:58:52.316Z,101802.14
2019-03-24T15:03:55.659Z,101790.96
2019-03-24T15:08:58.923Z,101791.45
2019-03-24T15:14:02.568Z,101792.00
2019-03-24T15:19:05.796Z,101785.92
2019-03-24T15:24:09.435Z,101786.51
2019-03-24T15:29:12.707Z,101787.13
2019-03-24T15:34:15.764Z,101781.06
2019-03-24T15:39:20.168Z,101776.81
2019-03-24T15:44:23.182Z,101771.50
2019-03-24T15:49:26.462Z,101771.52
2019-03-24T15:54:30.134Z,101759.95
2019-03-24T15:59:33.449Z,101755.10
2019-03-24T16:04:37.234Z,101751.73
2019-03-24T16:09:40.666Z,101748.64
2019-03-24T16:14:43.804Z,101739.31
2019-03-24T16:19:47.117Z,101732.59
2019-03-24T16:24:50.706Z,101728.03
2019-03-24T16:29:55.009Z,101729.28
2019-03-24T16:34:58.297Z,101723.44
2019-03-24T16:40:02.021Z,101721.39
2019-03-24T16:45:07.036Z,101706.14
2019-03-24T16:50:11.066Z,101704.39
2019-03-24T16:55:14.311Z,101714.13
2019-03-24T17:00:18.134Z,101713.54
2019-03-24T17:05:21.198Z,101713.09
2019-03-24T17:10:24.247Z,101695.34
2019-03-24T17:15:27.335Z,101697.31
2019-03-24T17:20:30.511Z,101696.17
2019-03-24T17:25:34.417Z,101694.95
2019-03-24T17:30:37.677Z,101692.70
2019-03-24T17:35:41.073Z,101690.44
2019-03-24T17:40:44.341Z,101683.66
2019-03-24T17:45:48.724Z,101680.07
2019-03-24T17:50:52.152Z,101678.83
2019-03-24T17:55:55.516Z,101672.23
2019-03-24T18:00:58.769Z,101670.39
2019-03-24T18:06:03.417Z,101669.59
2019-03-24T18:11:06.533Z,101676.41
2019-03-24T18:16:09.503Z,101670.98
2019-03-24T18:21:13.246Z,101666.37
2019-03-24T18:26:17.270Z,101656.64
2019-03-24T18:31:21.264Z,101656.64
2019-03-24T18:36:24.456Z,101643.28
2019-03-24T18:41:27.801Z,101648.73
2019-03-24T18:46:30.832Z,101646.47
2019-03-24T18:51:33.913Z,101657.89
2019-03-24T18:56:36.857Z,101649.02
2019-03-24T19:01:40.151Z,101648.42
2019-03-24T19:06:43.108Z,101638.11
2019-03-24T19:11:46.108Z,101632.75
2019-03-24T19:16:49.110Z,101631.97
2019-03-24T19:21:53.163Z,101630.61
2019-03-24T19:26:56.486Z,101620.95
2019-03-24T19:31:59.822Z,101627.91
2019-03-24T19:37:03.709Z,101617.88
2019-03-24T19:42:06.951Z,101615.66
2019-03-24T19:47:10.374Z,101602.50
2019-03-24T19:52:14.102Z,101587.95
2019-03-24T19:57:17.142Z,101585.09
2019-03-24T20:02:21.305Z,101580.84
2019-03-24T20:07:24.317Z,101581.88
2019-03-24T20:12:27.932Z,101584.53
2019-03-24T20:17:31.645Z,101581.14
2019-03-24T20:22:35.062Z,101576.27
2019-03-24T20:27:38.634Z,101562.98
2019-03-24T20:32:41.726Z,101563.44
2019-03-24T20:37:45.078Z,101564.88
2019-03-24T20:42:48.140Z,101556.11
2019-03-24T20:47:51.117Z,101548.43
2019-03-24T20:53:03.640Z,101541.59
2019-03-24T20:58:00.551Z,101541.50
2019-03-24T21:03:07.396Z,101536.01
2019-03-24T21:08:10.789Z,101533.41
2019-03-24T21:13:14.866Z,101527.07
2019-03-24T21:18:18.098Z,101527.80
2019-03-24T21:23:29.430Z,101518.66
2019-03-24T21:28:26.611Z,101527.98
2019-03-24T21:33:29.582Z,101519.90
2019-03-24T21:38:32.573Z,101518.98
2019-03-24T21:43:35.927Z,101520.46
2019-03-24T21:48:39.895Z,101506.93
2019-03-24T21:53:43.834Z,101501.19
2019-03-24T21:58:47.808Z,101484.56
2019-03-24T22:03:51.436Z,101483.08
2019-03-24T22:08:54.407Z,101476.01
2019-03-24T22:13:58.835Z,101463.42
2019-03-24T22:19:02.486Z,101459.10
2019-03-24T22:24:06.095Z,101447.52
2019-03-24T22:29:09.928Z,101446.66
2019-03-24T22:34:13.235Z,101447.51
2019-03-24T22:39:16.879Z,101437.91
2019-03-24T22:44:19.851Z,101425.94
2019-03-24T22:49:23.366Z,101417.19
2019-03-24T22:54:27.157Z,101410.17
2019-03-24T22:59:30.804Z,101402.21
2019-03-24T23:04:34.380Z,101389.71
2019-03-24T23:09:37.361Z,101394.79
2019-03-24T23:14:40.641Z,101389.28
2019-03-24T23:19:43.977Z,101381.83
2019-03-24T23:24:47.264Z,101380.17
2019-03-24T23:29:50.911Z,101372.81
2019-03-24T23:34:54.588Z,101367.05
2019-03-24T23:39:58.312Z,101360.76
2019-03-24T23:45:01.837Z,101349.64
2019-03-24T23:50:06.880Z,101344.80
2019-03-24T23:55:10.391Z,101340.70
